Time;durP1;ratioP1;P1;durP2;ratioP2;P2;SDS_P1;SDS_P2;PMS_P1;PMS_P2;Temp;Humidity;BMP_temperature;BMP_pressure;BME280_temperature;BME280_humidity;BME280_pressure;Samples;Min_cycle;Max_cycle;Signal;HPM_P1;HPM_P2
2022/05/31 00:01:48;;;;;;;3.03;2.10;;;;;;;12.98;68.84;95253.16;4983017;28;20208;-81
2022/05/31 00:04:15;;;;;;;2.50;2.30;;;;;;;12.95;68.93;95247.59;4982178;28;20208;-81
2022/05/31 00:06:42;;;;;;;2.43;2.07;;;;;;;12.93;68.87;95245.22;4984052;28;20216;-82
2022/05/31 00:09:09;;;;;;;2.50;2.30;;;;;;;12.87;69.72;95251.19;4983835;28;20232;-81
2022/05/31 00:11:36;;;;;;;2.20;2.00;;;;;;;12.87;68.96;95258.16;4985444;28;20286;-81
2022/05/31 00:14:02;;;;;;;2.93;2.03;;;;;;;12.78;69.74;95257.53;4985806;28;20195;-81
2022/05/31 00:16:28;;;;;;;1.93;1.80;;;;;;;12.66;70.09;95249.59;4989724;28;20242;-81
2022/05/31 00:18:56;;;;;;;2.40;2.17;;;;;;;12.63;69.46;95247.38;4982654;28;20223;-82
2022/05/31 00:21:27;;;;;;;2.20;2.00;;;;;;;12.76;69.19;95249.19;4984427;28;20207;-81
2022/05/31 00:23:54;;;;;;;2.70;2.20;;;;;;;12.92;68.57;95256.53;4984508;28;20200;-81
2022/05/31 00:26:20;;;;;;;1.83;1.73;;;;;;;13.08;67.03;95258.72;4982063;28;20255;-81
2022/05/31 00:28:47;;;;;;;2.77;2.00;;;;;;;13.11;67.03;95252.34;4984996;28;20227;-81
2022/05/31 00:31:13;;;;;;;2.07;1.87;;;;;;;13.10;66.52;95251.56;4987850;28;20199;-81
2022/05/31 00:33:40;;;;;;;4.47;2.13;;;;;;;13.15;66.35;95253.59;4987502;28;20207;-82
2022/05/31 00:36:09;;;;;;;2.70;1.93;;;;;;;13.20;65.95;95258.16;4986695;28;20723;-81
2022/05/31 00:38:35;;;;;;;1.80;1.70;;;;;;;13.10;66.38;95250.75;4986337;28;20235;-81
2022/05/31 00:41:23;;;;;;;2.17;1.63;;;;;;;13.09;66.83;95251.75;4986070;28;20199;-81
2022/05/31 00:43:51;;;;;;;1.90;1.80;;;;;;;13.08;66.22;95250.19;4986836;28;20290;-81
2022/05/31 00:46:20;;;;;;;2.97;1.80;;;;;;;13.13;65.91;95246.00;4981959;28;20228;-81
2022/05/31 00:48:51;;;;;;;4.10;2.00;;;;;;;13.21;65.24;95247.63;4984340;28;20231;-81
2022/05/31 00:51:20;;;;;;;1.70;1.53;;;;;;;13.30;65.20;95243.00;4985805;28;20263;-81
2022/05/31 00:53:50;;;;;;;3.13;1.80;;;;;;;13.35;64.97;95244.00;4974114;28;20279;-81
2022/05/31 00:56:20;;;;;;;2.33;1.80;;;;;;;13.32;64.94;95247.00;4987147;28;20227;-81
2022/05/31 00:58:51;;;;;;;2.10;1.90;;;;;;;13.29;64.69;95244.00;4984489;28;20241;-81
2022/05/31 01:01:18;;;;;;;1.90;1.80;;;;;;;13.23;65.01;95235.28;4987299;28;20210;-81
2022/05/31 01:03:45;;;;;;;4.20;1.80;;;;;;;13.24;65.29;95247.22;4983344;28;20208;-81
2022/05/31 01:06:12;;;;;;;2.00;1.90;;;;;;;13.13;65.37;95248.56;4987083;28;20219;-82
2022/05/31 01:08:44;;;;;;;1.80;1.70;;;;;;;13.07;65.60;95249.41;4983752;28;20228;-81
2022/05/31 01:11:13;;;;;;;2.10;1.90;;;;;;;13.08;65.49;95250.19;4986270;28;20199;-81
2022/05/31 01:13:40;;;;;;;2.80;1.80;;;;;;;13.07;66.01;95246.00;4985026;28;20258;-81
2022/05/31 01:16:09;;;;;;;2.23;1.67;;;;;;;13.10;65.27;95253.34;4976897;28;20254;-81
2022/05/31 01:18:35;;;;;;;2.63;1.90;;;;;;;13.03;65.97;95245.63;4982662;28;20234;-81
2022/05/31 01:21:04;;;;;;;2.57;1.80;;;;;;;13.05;65.51;95246.22;4984454;28;20199;-81
2022/05/31 01:23:35;;;;;;;1.83;1.73;;;;;;;13.05;65.82;95243.63;4988198;28;20212;-81
2022/05/31 01:26:10;;;;;;;1.77;1.67;;;;;;;12.98;66.24;95242.03;4980527;28;20715;-81
2022/05/31 01:28:57;;;;;;;1.80;1.70;;;;;;;13.04;66.02;95244.63;4980862;28;20285;-81
2022/05/31 01:31:29;;;;;;;1.87;1.70;;;;;;;13.06;65.43;95244.44;4981419;28;20200;-81
2022/05/31 01:34:01;;;;;;;2.27;1.80;;;;;;;13.02;65.79;95243.22;4983180;28;20203;-81
2022/05/31 01:36:34;;;;;;;2.30;1.87;;;;;;;12.95;66.05;95232.09;4978392;28;20235;-81
2022/05/31 01:39:04;;;;;;;2.30;1.80;;;;;;;13.02;65.83;95236.28;4979026;28;20220;-81
2022/05/31 01:41:35;;;;;;;1.93;1.83;;;;;;;13.03;65.85;95230.09;4979295;28;20753;-81
2022/05/31 01:44:06;;;;;;;2.30;1.77;;;;;;;13.10;65.23;95230.09;4984668;28;20199;-81
2022/05/31 01:46:34;;;;;;;1.70;1.60;;;;;;;13.17;64.64;95220.56;4983509;28;20223;-81
2022/05/31 01:49:06;;;;;;;2.23;1.60;;;;;;;13.16;64.55;95216.41;4979918;28;20220;-81
2022/05/31 01:51:34;;;;;;;1.70;1.60;;;;;;;13.18;64.33;95216.19;4975106;28;20658;-81
2022/05/31 01:54:01;;;;;;;1.70;1.60;;;;;;;13.15;64.27;95212.22;4983221;28;20199;-82
2022/05/31 01:56:27;;;;;;;1.57;1.47;;;;;;;13.10;64.88;95206.81;4984125;28;20294;-81
2022/05/31 01:58:56;;;;;;;1.70;1.60;;;;;;;13.00;64.79;95196.13;4981094;28;20277;-82
2022/05/31 02:01:24;;;;;;;1.40;1.30;;;;;;;12.97;64.85;95207.63;4986828;28;20249;-82
2022/05/31 02:03:50;;;;;;;1.77;1.63;;;;;;;12.89;64.76;95197.53;4976274;28;20197;-82
2022/05/31 02:06:24;;;;;;;1.60;1.50;;;;;;;12.80;65.23;95203.88;4986232;28;20227;-81
2022/05/31 02:08:52;;;;;;;1.90;1.50;;;;;;;12.84;64.87;95206.88;4977887;28;20650;-82
2022/05/31 02:11:19;;;;;;;1.60;1.50;;;;;;;12.85;64.37;95209.25;4972533;28;20267;-81
2022/05/31 02:13:46;;;;;;;1.97;1.50;;;;;;;12.92;64.12;95201.47;4979573;28;20212;-81
2022/05/31 02:16:12;;;;;;;1.40;1.30;;;;;;;12.95;63.65;95212.22;4980122;28;20319;-82
2022/05/31 02:21:23;;;;;;;2.50;1.40;;;;;;;13.10;63.08;95212.78;4992279;28;20278;-81
2022/05/31 02:23:50;;;;;;;1.40;1.30;;;;;;;13.15;62.98;95217.38;4982245;28;20212;-81
2022/05/31 02:26:17;;;;;;;1.37;1.27;;;;;;;13.09;63.31;95212.97;4983975;28;20232;-81
2022/05/31 02:28:44;;;;;;;1.60;1.50;;;;;;;13.13;63.28;95211.59;4980072;28;20719;-81
2022/05/31 02:31:12;;;;;;;1.50;1.40;;;;;;;13.09;63.40;95216.38;4985662;28;20255;-82
2022/05/31 02:33:38;;;;;;;1.50;1.40;;;;;;;13.05;63.80;95215.19;4987362;28;20219;-82
2022/05/31 02:36:05;;;;;;;1.23;1.13;;;;;;;13.01;63.72;95224.34;4986295;28;20232;-82
2022/05/31 02:38:31;;;;;;;1.47;1.37;;;;;;;13.06;63.99;95229.72;4980312;28;20231;-81
2022/05/31 02:40:58;;;;;;;1.40;1.30;;;;;;;13.02;64.38;95228.53;4991874;28;20686;-82
2022/05/31 02:43:25;;;;;;;1.57;1.40;;;;;;;12.97;65.04;95230.09;4983966;28;20306;-82
2022/05/31 02:45:52;;;;;;;2.70;1.53;;;;;;;12.97;64.83;95233.47;4986440;28;20228;-81
2022/05/31 02:48:20;;;;;;;1.60;1.50;;;;;;;12.97;64.91;95230.09;4979980;28;20768;-82
2022/05/31 02:50:46;;;;;;;2.50;1.60;;;;;;;12.94;65.26;95233.06;4980254;28;20232;-81
2022/05/31 02:53:13;;;;;;;1.50;1.40;;;;;;;12.94;65.06;95233.88;4982797;28;20250;-81
2022/05/31 02:55:39;;;;;;;1.50;1.40;;;;;;;12.95;65.59;95237.25;4985600;28;20310;-82
2022/05/31 02:58:05;;;;;;;1.50;1.40;;;;;;;12.98;65.58;95239.44;4979833;28;20200;-82
2022/05/31 03:00:33;;;;;;;1.50;1.40;;;;;;;13.03;65.79;95237.06;4979347;28;20623;-81
2022/05/31 03:03:00;;;;;;;1.50;1.40;;;;;;;12.92;65.80;95235.06;4974217;28;20204;-82
2022/05/31 03:05:26;;;;;;;1.47;1.37;;;;;;;12.77;66.11;95243.81;4985460;28;20234;-82
2022/05/31 03:07:52;;;;;;;1.70;1.40;;;;;;;12.65;66.87;95247.19;4986344;28;20203;-82
2022/05/31 03:10:19;;;;;;;1.40;1.30;;;;;;;12.60;68.00;95244.41;4985905;28;20232;-82
2022/05/31 03:12:47;;;;;;;1.47;1.33;;;;;;;12.62;67.27;95245.81;4981526;28;20200;-82
2022/05/31 03:15:17;;;;;;;1.70;1.60;;;;;;;12.67;67.19;95247.78;4977614;28;20781;-82
2022/05/31 03:17:49;;;;;;;2.10;1.60;;;;;;;12.76;67.30;95244.81;4985526;28;20290;-82
2022/05/31 03:20:21;;;;;;;1.53;1.43;;;;;;;12.78;66.71;95244.63;4986550;28;20223;-82
2022/05/31 03:22:54;;;;;;;2.57;1.70;;;;;;;12.74;66.98;95244.22;4982517;28;20196;-82
2022/05/31 03:25:24;;;;;;;1.60;1.50;;;;;;;12.76;67.04;95249.19;4978909;28;20227;-82
2022/05/31 03:27:54;;;;;;;1.50;1.40;;;;;;;12.73;66.98;95242.63;4985780;28;20203;-82
2022/05/31 03:30:20;;;;;;;1.70;1.60;;;;;;;12.70;67.81;95242.25;4986149;28;20704;-82
2022/05/31 03:32:48;;;;;;;4.63;2.10;;;;;;;12.68;68.10;95245.00;4982568;28;20204;-82
2022/05/31 03:35:15;;;;;;;2.77;1.70;;;;;;;12.69;68.37;95246.59;4984062;28;20231;-81
2022/05/31 03:37:41;;;;;;;2.40;1.73;;;;;;;12.68;68.24;95255.34;4983246;28;20257;-82
2022/05/31 03:40:09;;;;;;;1.70;1.50;;;;;;;12.71;67.95;95241.22;4981767;28;20219;-82
2022/05/31 03:42:35;;;;;;;1.70;1.60;;;;;;;12.74;67.92;95246.00;4973966;28;20758;-82
2022/05/31 03:45:01;;;;;;;1.63;1.53;;;;;;;12.78;68.22;95250.56;4979738;28;20220;-82
2022/05/31 03:47:28;;;;;;;1.60;1.50;;;;;;;12.83;67.70;95252.56;4982345;28;20204;-82
2022/05/31 03:49:55;;;;;;;2.33;1.70;;;;;;;12.65;68.62;95247.19;4981427;28;20231;-82
2022/05/31 03:52:22;;;;;;;3.43;2.17;;;;;;;12.51;68.70;95248.19;4977096;28;20204;-82
2022/05/31 03:54:48;;;;;;;1.80;1.70;;;;;;;12.27;70.75;95257.25;4979655;28;20204;-82
2022/05/31 03:57:17;;;;;;;1.97;1.80;;;;;;;12.20;71.30;95246.91;4981895;28;20204;-81
2022/05/31 03:59:44;;;;;;;2.20;1.97;;;;;;;12.21;70.75;95240.75;4982106;28;20399;-82
2022/05/31 04:02:10;;;;;;;4.10;1.60;;;;;;;12.21;71.90;95243.34;4980858;28;20722;-82
2022/05/31 04:04:37;;;;;;;2.30;1.80;;;;;;;12.34;70.98;95251.09;4975868;28;20208;-82
2022/05/31 04:07:05;;;;;;;3.10;1.80;;;;;;;12.48;70.21;95256.31;4981456;28;20223;-82
2022/05/31 04:09:32;;;;;;;1.90;1.70;;;;;;;12.59;70.47;95260.88;4988335;28;20735;-81
2022/05/31 04:11:59;;;;;;;2.23;1.90;;;;;;;12.59;70.70;95259.09;4983089;28;20692;-82
2022/05/31 04:14:25;;;;;;;3.03;1.90;;;;;;;12.70;69.68;95255.16;4991648;28;20207;-81
2022/05/31 04:16:52;;;;;;;1.93;1.83;;;;;;;12.78;69.55;95260.13;4985750;28;20255;-81
2022/05/31 04:19:18;;;;;;;5.50;2.00;;;;;;;12.78;69.64;95262.69;4989878;28;20235;-82
2022/05/31 04:21:44;;;;;;;2.53;1.80;;;;;;;12.83;69.88;95257.75;4986179;28;20207;-82
2022/05/31 04:24:13;;;;;;;2.30;2.10;;;;;;;12.87;69.66;95269.28;4989536;28;20200;-82
2022/05/31 04:26:43;;;;;;;2.20;2.00;;;;;;;12.93;68.85;95259.91;4987034;28;20228;-82
2022/05/31 04:29:09;;;;;;;2.30;1.90;;;;;;;12.98;68.85;95265.28;4988547;28;20231;-81
2022/05/31 04:31:36;;;;;;;2.03;1.93;;;;;;;12.95;69.41;95269.06;4987909;28;20690;-82
2022/05/31 04:34:03;;;;;;;2.07;1.87;;;;;;;12.80;70.33;95266.69;4988647;28;20659;-82
2022/05/31 04:36:30;;;;;;;2.73;2.40;;;;;;;12.85;70.49;95273.03;4987666;28;20660;-82
2022/05/31 04:38:56;;;;;;;2.00;1.90;;;;;;;12.95;70.46;95281.97;4963018;28;20290;-84
2022/05/31 04:41:26;;;;;;;2.13;2.00;;;;;;;12.87;72.69;95281.41;4976213;28;20668;-82
2022/05/31 04:43:53;;;;;;;2.30;2.10;;;;;;;12.89;72.13;95287.16;4984284;28;20252;-83
2022/05/31 04:46:22;;;;;;;2.40;2.10;;;;;;;13.01;71.13;95286.38;4979139;28;20234;-83
2022/05/31 04:48:49;;;;;;;2.80;2.20;;;;;;;13.09;71.50;95280.19;4976796;28;20239;-82
2022/05/31 04:51:16;;;;;;;2.53;2.03;;;;;;;13.27;69.85;95279.63;4981177;28;20263;-82
2022/05/31 04:53:43;;;;;;;2.40;2.20;;;;;;;13.33;69.45;95279.63;4977903;28;20207;-82
2022/05/31 04:56:12;;;;;;;3.07;2.00;;;;;;;13.45;68.63;95282.41;4988093;28;20654;-81
2022/05/31 04:58:40;;;;;;;4.13;2.10;;;;;;;13.55;68.92;95277.59;4985234;28;20227;-82
2022/05/31 05:01:07;;;;;;;1.87;1.60;;;;;;;13.63;66.32;95274.81;4968821;28;20209;-82
2022/05/31 05:03:34;;;;;;;2.80;1.67;;;;;;;13.59;63.57;95276.19;4971503;28;20255;-82
2022/05/31 05:06:01;;;;;;;1.67;1.50;;;;;;;13.45;64.09;95264.31;4977093;28;20931;-81
2022/05/31 05:08:28;;;;;;;2.40;1.53;;;;;;;13.34;64.85;95264.91;4976506;28;20228;-81
2022/05/31 05:10:55;;;;;;;2.33;1.57;;;;;;;13.36;65.25;95257.72;4976468;28;20251;-81
2022/05/31 05:13:22;;;;;;;1.90;1.80;;;;;;;13.40;65.82;95266.69;4976741;28;20271;-82
2022/05/31 05:15:51;;;;;;;2.13;1.83;;;;;;;13.55;65.23;95271.63;4976076;28;20291;-82
2022/05/31 05:18:17;;;;;;;3.33;1.77;;;;;;;13.66;64.58;95279.53;4976031;28;20243;-81
2022/05/31 05:20:44;;;;;;;2.20;2.00;;;;;;;13.70;63.22;95280.75;4976188;28;20250;-84
2022/05/31 05:23:10;;;;;;;2.07;1.60;;;;;;;13.62;63.43;95283.56;4975235;28;20604;-81
2022/05/31 05:25:37;;;;;;;2.60;2.40;;;;;;;13.71;63.73;95273.78;4976838;28;20232;-81
2022/05/31 05:30:38;;;;;;;2.60;1.90;;;;;;;13.90;63.88;95277.28;4979397;28;20254;-81
2022/05/31 05:30:51;;;;;;;3.60;2.50;;;;;;;13.88;64.23;95274.13;4972099;28;20229;-81
2022/05/31 05:33:19;;;;;;;2.23;2.03;;;;;;;13.90;63.19;95274.72;4985598;28;20675;-81
2022/05/31 05:35:45;;;;;;;3.03;1.60;;;;;;;13.98;62.75;95264.94;4977960;28;20228;-81
2022/05/31 05:38:13;;;;;;;8.17;6.93;;;;;;;14.02;62.30;95268.72;4982902;28;20204;-81
2022/05/31 05:40:40;;;;;;;2.80;1.73;;;;;;;13.99;61.82;95268.31;4982679;28;20743;-81
2022/05/31 05:43:08;;;;;;;3.40;1.80;;;;;;;13.94;62.28;95273.31;4986263;28;20203;-81
2022/05/31 05:45:34;;;;;;;2.03;1.90;;;;;;;14.02;62.16;95273.88;4988099;28;20818;-81
2022/05/31 05:48:03;;;;;;;2.70;1.80;;;;;;;14.14;61.82;95281.78;4985488;28;20939;-81
2022/05/31 05:50:30;;;;;;;1.73;1.63;;;;;;;14.10;60.41;95283.19;4988365;28;20228;-81
2022/05/31 05:52:59;;;;;;;2.50;1.80;;;;;;;14.20;61.15;95298.31;4985817;28;20624;-82
2022/05/31 05:55:26;;;;;;;2.13;1.90;;;;;;;14.21;60.30;95282.56;4973979;28;20227;-81
2022/05/31 05:57:54;;;;;;;3.53;2.00;;;;;;;14.29;60.67;95286.69;4993176;28;20204;-79
2022/05/31 06:00:21;;;;;;;3.63;1.87;;;;;;;14.39;60.28;95289.66;4997082;28;20232;-79
2022/05/31 06:02:53;;;;;;;2.27;1.80;;;;;;;14.29;59.79;95284.91;4990517;28;20237;-80
2022/05/31 06:05:26;;;;;;;1.97;1.60;;;;;;;14.33;60.14;95275.72;4974836;28;20228;-79
2022/05/31 06:07:56;;;;;;;1.60;1.50;;;;;;;14.44;61.05;95277.69;4987842;28;20200;-80
2022/05/31 06:10:27;;;;;;;2.27;1.80;;;;;;;14.54;59.64;95279.84;4998600;28;20236;-80
2022/05/31 06:12:58;;;;;;;2.10;1.83;;;;;;;14.62;60.01;95284.00;4982601;28;20208;-79
2022/05/31 06:15:31;;;;;;;2.70;1.70;;;;;;;14.60;59.38;95284.19;4991450;28;20227;-80
2022/05/31 06:18:00;;;;;;;1.88;1.60;;;;;;;14.57;59.97;95289.00;4981119;28;20204;-79
2022/05/31 06:20:29;;;;;;;2.33;1.60;;;;;;;14.61;60.13;95290.16;4982595;28;20272;-81
2022/05/31 06:22:57;;;;;;;2.50;1.60;;;;;;;14.61;60.11;95296.16;4982941;28;20219;-80
2022/05/31 06:25:23;;;;;;;1.42;1.33;;;;;;;14.56;58.81;95295.19;4977813;28;20231;-81
2022/05/31 06:27:51;;;;;;;3.17;1.63;;;;;;;14.67;59.94;95286.72;4990391;28;20203;-79
2022/05/31 06:30:18;;;;;;;2.13;1.33;;;;;;;14.78;59.07;95289.47;4984258;28;20254;-81
2022/05/31 06:32:44;;;;;;;1.80;1.50;;;;;;;14.85;58.15;95281.63;4981250;28;20264;-81
2022/05/31 06:35:10;;;;;;;1.50;1.40;;;;;;;14.94;59.17;95270.00;4982126;28;20228;-80
2022/05/31 06:37:38;;;;;;;3.10;1.80;;;;;;;15.00;59.03;95274.34;4985679;28;20271;-80
2022/05/31 06:40:07;;;;;;;3.65;1.67;;;;;;;15.07;58.54;95282.84;4972929;28;20685;-80
2022/05/31 06:42:34;;;;;;;1.63;1.38;;;;;;;15.14;56.93;95290.59;4995404;28;20600;-81
2022/05/31 06:45:00;;;;;;;3.70;1.45;;;;;;;15.24;56.74;95290.09;4989346;28;20219;-81
2022/05/31 06:47:27;;;;;;;3.40;1.77;;;;;;;15.30;56.33;95279.69;4988210;28;20226;-80
2022/05/31 06:49:53;;;;;;;1.50;1.40;;;;;;;15.25;56.39;95269.16;4984460;28;20291;-80
2022/05/31 06:57:51;;;;;;;1.50;1.40;;;;;;;15.39;56.43;95269.84;4961983;29;20200;-80
2022/05/31 07:00:20;;;;;;;1.55;1.45;;;;;;;15.48;56.14;95268.53;4961162;28;20232;-81
2022/05/31 07:02:46;;;;;;;2.55;1.63;;;;;;;15.52;55.74;95267.13;4971430;28;20247;-81
2022/05/31 07:05:14;;;;;;;4.55;1.90;;;;;;;15.64;56.22;95275.00;4981467;28;20223;-80
2022/05/31 07:07:41;;;;;;;1.75;1.60;;;;;;;15.73;56.16;95268.53;4980851;28;20203;-81
2022/05/31 07:10:10;;;;;;;2.08;1.60;;;;;;;15.79;55.73;95271.03;4980311;28;20290;-81
2022/05/31 07:12:37;;;;;;;1.58;1.30;;;;;;;15.79;54.29;95272.84;4981621;28;20272;-81
2022/05/31 07:15:05;;;;;;;2.40;1.48;;;;;;;15.92;54.23;95279.72;4979767;28;20414;-81
2022/05/31 07:17:31;;;;;;;2.03;1.80;;;;;;;16.04;54.35;95276.16;4981623;28;20208;-81
2022/05/31 07:19:58;;;;;;;2.13;1.50;;;;;;;16.19;54.46;95279.16;4980413;28;20761;-80
2022/05/31 07:22:24;;;;;;;13.00;2.33;;;;;;;16.29;55.18;95280.47;4980324;28;20572;-81
2022/05/31 07:24:50;;;;;;;4.13;1.50;;;;;;;16.25;53.36;95269.72;4979289;28;20615;-80
2022/05/31 07:27:19;;;;;;;2.58;1.42;;;;;;;16.29;53.34;95264.88;4981077;28;20208;-82
2022/05/31 07:29:45;;;;;;;1.92;1.60;;;;;;;16.38;53.99;95269.53;4981633;28;20727;-81
2022/05/31 07:32:11;;;;;;;1.40;1.30;;;;;;;16.49;52.66;95271.41;4981054;28;20232;-81
2022/05/31 07:34:38;;;;;;;1.63;1.52;;;;;;;16.65;52.54;95261.41;4981589;28;20200;-81
2022/05/31 07:37:04;;;;;;;1.58;1.30;;;;;;;16.80;50.47;95265.19;4982044;28;20256;-81
2022/05/31 07:39:31;;;;;;;1.67;1.10;;;;;;;17.04;51.45;95260.81;4980079;28;20235;-81
2022/05/31 07:41:57;;;;;;;1.45;1.27;;;;;;;17.22;50.07;95271.13;4980037;28;20207;-80
2022/05/31 07:44:26;;;;;;;2.38;1.70;;;;;;;17.30;49.48;95269.22;4990493;28;20236;-81
2022/05/31 07:46:53;;;;;;;2.85;1.60;;;;;;;17.37;49.27;95269.91;4990421;28;20220;-79
2022/05/31 07:49:20;;;;;;;1.20;1.10;;;;;;;17.35;47.93;95261.53;4991302;28;20295;-80
2022/05/31 07:51:46;;;;;;;2.10;1.20;;;;;;;17.48;48.49;95258.72;4988312;28;20267;-81
2022/05/31 07:54:13;;;;;;;1.10;1.00;;;;;;;17.53;48.43;95256.19;4994533;28;20957;-80
2022/05/31 07:56:40;;;;;;;2.53;1.13;;;;;;;17.64;47.92;95244.19;4991269;28;20786;-81
2022/05/31 07:59:07;;;;;;;1.98;1.38;;;;;;;17.79;47.93;95254.97;5002218;28;20239;-80
2022/05/31 08:01:35;;;;;;;1.58;1.10;;;;;;;17.94;47.89;95263.06;4990844;28;20715;-81
2022/05/31 08:04:01;;;;;;;2.50;1.42;;;;;;;18.09;47.38;95255.56;4990299;28;20261;-81
2022/05/31 08:06:30;;;;;;;2.60;1.40;;;;;;;18.21;47.66;95261.53;4991726;28;20537;-80
2022/05/31 08:08:57;;;;;;;1.90;1.20;;;;;;;18.30;47.18;95254.94;4978623;28;20290;-79
2022/05/31 08:11:26;;;;;;;2.22;1.17;;;;;;;18.44;46.05;95252.84;4983809;28;20311;-79
2022/05/31 08:13:53;;;;;;;3.05;1.60;;;;;;;18.55;45.21;95248.59;4986956;28;20200;-79
2022/05/31 08:16:21;;;;;;;1.35;1.25;;;;;;;18.54;45.22;95234.78;4984687;28;20242;-81
2022/05/31 08:18:50;;;;;;;1.30;1.10;;;;;;;18.65;44.96;95248.03;4989031;28;20310;-79
2022/05/31 08:21:18;;;;;;;1.40;1.25;;;;;;;18.64;43.91;95244.63;4980751;28;20208;-80
2022/05/31 08:23:45;;;;;;;1.50;1.00;;;;;;;18.74;44.25;95238.78;4986749;28;20209;-79
2022/05/31 08:26:12;;;;;;;1.52;1.00;;;;;;;18.91;44.85;95242.19;4983994;28;20277;-80
2022/05/31 08:28:39;;;;;;;2.33;1.30;;;;;;;19.09;43.40;95241.94;4984161;28;20228;-79
2022/05/31 08:31:10;;;;;;;1.23;1.13;;;;;;;19.16;44.33;95232.16;4976594;28;20215;-80
2022/05/31 08:33:37;;;;;;;4.50;1.33;;;;;;;19.37;45.33;95222.81;4976902;28;20219;-81
2022/05/31 08:36:05;;;;;;;4.57;1.30;;;;;;;19.51;43.01;95221.44;4983216;28;20634;-80
2022/05/31 08:38:32;;;;;;;1.60;1.13;;;;;;;19.61;42.02;95224.22;4983843;28;20255;-80
2022/05/31 08:41:07;;;;;;;1.40;1.30;;;;;;;19.77;42.26;95227.81;4982420;28;20204;-81
2022/05/31 08:43:48;;;;;;;1.42;1.20;;;;;;;19.74;40.48;95209.22;4978445;28;20227;-79
2022/05/31 08:46:23;;;;;;;1.30;1.20;;;;;;;19.85;41.46;95205.66;4976865;28;20232;-82
2022/05/31 08:48:58;;;;;;;1.30;1.20;;;;;;;20.04;40.63;95211.38;4987463;28;20231;-80
2022/05/31 08:51:53;;;;;;;1.30;1.20;;;;;;;20.09;40.35;95203.59;4989189;28;20224;-80
2022/05/31 08:57:15;;;;;;;2.30;1.20;;;;;;;20.15;41.94;95202.63;4982962;28;20242;-80
2022/05/31 08:59:46;;;;;;;1.50;1.30;;;;;;;20.16;42.23;95210.22;4986046;28;20232;-81
2022/05/31 09:02:18;;;;;;;1.48;1.23;;;;;;;20.40;42.16;95205.50;4990516;28;20196;-81
2022/05/31 09:04:49;;;;;;;1.52;1.40;;;;;;;20.43;41.61;95210.25;4993150;28;20191;-81
2022/05/31 09:07:21;;;;;;;1.15;1.10;;;;;;;20.40;41.74;95215.22;4986804;28;20199;-81
2022/05/31 09:09:53;;;;;;;1.40;1.30;;;;;;;20.51;43.42;95215.06;4993843;28;20231;-81
2022/05/31 09:12:29;;;;;;;3.80;1.27;;;;;;;20.73;42.20;95207.16;4994954;28;20571;-81
2022/05/31 09:15:02;;;;;;;1.25;1.17;;;;;;;20.93;42.27;95202.06;4981461;28;20208;-80
2022/05/31 09:17:39;;;;;;;2.80;1.30;;;;;;;21.08;42.08;95201.41;4989942;28;20282;-81
2022/05/31 09:20:12;;;;;;;2.40;1.30;;;;;;;21.27;41.16;95194.75;4982173;28;20584;-80
2022/05/31 09:22:43;;;;;;;2.42;1.70;;;;;;;21.39;41.03;95189.31;4983619;28;20192;-80
2022/05/31 09:25:10;;;;;;;1.40;1.30;;;;;;;21.41;41.45;95189.84;4986381;28;20223;-80
2022/05/31 09:27:41;;;;;;;1.48;1.23;;;;;;;21.48;40.74;95189.63;4993454;28;20583;-80
2022/05/31 09:30:12;;;;;;;3.10;1.45;;;;;;;21.46;39.55;95197.72;4984264;28;20231;-81
2022/05/31 09:32:59;;;;;;;2.75;1.40;;;;;;;21.62;39.89;95193.34;4986895;28;20270;-81
2022/05/31 09:35:42;;;;;;;1.63;1.33;;;;;;;21.75;40.31;95192.88;4982333;28;20244;-81
2022/05/31 09:38:38;;;;;;;2.60;1.52;;;;;;;21.84;41.02;95199.22;4983248;28;20204;-81
2022/05/31 09:41:15;;;;;;;2.10;1.67;;;;;;;22.02;40.20;95192.75;4957788;29;20212;-80
2022/05/31 09:43:48;;;;;;;4.20;1.35;;;;;;;22.16;38.12;95193.06;4987245;28;20202;-80
2022/05/31 09:46:19;;;;;;;1.20;1.10;;;;;;;22.11;38.05;95190.44;4991817;28;20850;-80
2022/05/31 09:48:48;;;;;;;1.20;1.10;;;;;;;22.09;37.71;95188.06;4989846;28;20237;-79
2022/05/31 09:51:24;;;;;;;1.75;1.23;;;;;;;22.26;38.01;95190.47;4992914;28;20195;-80
2022/05/31 09:59:25;;;;;;;6.50;1.80;;;;;;;22.98;37.28;95190.31;4987090;28;20714;-81
2022/05/31 10:01:52;;;;;;;5.65;1.30;;;;;;;23.06;37.09;95184.53;4989785;28;20207;-81
2022/05/31 10:04:24;;;;;;;2.03;1.70;;;;;;;23.14;37.77;95175.31;4981938;28;20251;-80
2022/05/31 10:06:54;;;;;;;4.32;1.23;;;;;;;23.08;37.61;95179.81;4986356;28;20227;-80
2022/05/31 10:09:25;;;;;;;1.85;1.50;;;;;;;23.15;37.64;95171.63;4991388;28;20265;-80
2022/05/31 10:12:05;;;;;;;1.52;1.40;;;;;;;23.22;37.37;95164.28;4998006;28;20223;-80
2022/05/31 10:14:33;;;;;;;2.40;1.20;;;;;;;23.27;37.23;95166.13;4986826;28;20211;-81
2022/05/31 10:17:15;;;;;;;1.45;1.30;;;;;;;23.21;38.21;95159.28;4982911;28;20228;-80
2022/05/31 10:19:42;;;;;;;1.48;1.38;;;;;;;23.32;38.26;95160.81;4978731;28;20230;-81
2022/05/31 10:22:16;;;;;;;2.47;1.50;;;;;;;23.32;36.83;95153.72;4986641;28;20209;-81
2022/05/31 10:24:43;;;;;;;2.08;1.25;;;;;;;23.26;36.88;95152.19;4987291;28;20210;-80
2022/05/31 10:27:14;;;;;;;1.55;1.45;;;;;;;23.46;37.98;95148.72;4979661;28;20227;-81
2022/05/31 10:29:46;;;;;;;2.15;1.10;;;;;;;23.67;37.47;95142.34;4989955;28;20223;-79
2022/05/31 10:32:27;;;;;;;2.05;1.58;;;;;;;23.88;36.40;95143.03;4986099;28;20754;-80
2022/05/31 10:35:11;;;;;;;2.42;1.20;;;;;;;23.91;36.37;95139.88;4996805;28;20211;-80
2022/05/31 10:37:49;;;;;;;1.65;1.20;;;;;;;24.05;35.66;95132.19;4980888;28;20215;-81
2022/05/31 10:40:19;;;;;;;2.40;1.55;;;;;;;24.03;36.32;95127.19;4983570;28;20243;-82
2022/05/31 10:42:52;;;;;;;1.40;1.30;;;;;;;24.06;36.68;95117.97;4983570;28;20199;-82
2022/05/31 10:45:22;;;;;;;3.30;1.40;;;;;;;23.90;35.71;95117.25;4982176;28;20281;-82
2022/05/31 10:47:48;;;;;;;1.60;1.42;;;;;;;24.02;36.15;95115.09;4988667;28;20258;-82
2022/05/31 10:50:15;;;;;;;1.83;1.30;;;;;;;23.89;35.66;95115.69;4987523;28;20278;-82
2022/05/31 10:52:53;;;;;;;3.90;1.50;;;;;;;23.60;35.03;95120.03;4987118;28;20223;-81
2022/05/31 10:55:31;;;;;;;2.40;1.40;;;;;;;23.50;34.59;95127.91;4982028;28;20246;-82
2022/05/31 10:58:11;;;;;;;1.60;1.50;;;;;;;23.62;34.67;95121.34;4990002;28;20206;-80
2022/05/31 11:00:42;;;;;;;2.65;1.50;;;;;;;23.45;35.81;95106.94;4956807;28;20224;-81
2022/05/31 11:03:22;;;;;;;1.83;1.33;;;;;;;23.18;35.89;95104.66;4967769;28;20204;-80
2022/05/31 11:06:08;;;;;;;1.75;1.40;;;;;;;23.22;36.54;95108.31;4968193;28;20249;-81
2022/05/31 11:11:48;;;;;;;2.78;1.60;;;;;;;23.08;36.92;95110.72;4982348;28;20206;-80
2022/05/31 11:14:37;;;;;;;4.22;1.73;;;;;;;23.12;37.35;95114.38;4970447;28;20455;-80
2022/05/31 11:17:16;;;;;;;1.88;1.40;;;;;;;22.86;36.24;95116.28;4978390;28;20230;-81
2022/05/31 11:19:53;;;;;;;1.60;1.50;;;;;;;22.69;36.45;95118.38;4972645;28;20232;-81
2022/05/31 11:22:33;;;;;;;1.67;1.52;;;;;;;23.03;36.78;95114.16;4984404;28;20575;-80
2022/05/31 11:25:51;;;;;;;1.40;1.30;;;;;;;23.21;35.99;95112.78;4989876;28;20200;-80
2022/05/31 11:28:41;;;;;;;3.38;1.50;;;;;;;23.32;36.08;95106.44;4938657;28;20285;-80
2022/05/31 11:31:30;;;;;;;3.05;1.40;;;;;;;23.22;36.30;95108.31;4987357;28;20199;-82
2022/05/31 11:34:05;;;;;;;2.95;1.40;;;;;;;23.26;36.08;95107.53;4979452;28;20231;-80
2022/05/31 11:36:44;;;;;;;2.78;1.50;;;;;;;23.38;36.36;95105.38;4981024;28;20224;-80
2022/05/31 11:39:28;;;;;;;1.50;1.40;;;;;;;23.37;36.78;95103.81;4980120;28;20235;-81
2022/05/31 11:42:04;;;;;;;2.08;1.50;;;;;;;23.46;36.65;95101.41;4984053;28;20275;-81
2022/05/31 11:44:53;;;;;;;3.33;1.58;;;;;;;23.25;37.43;95105.94;4990693;28;20203;-81
2022/05/31 11:47:41;;;;;;;1.77;1.67;;;;;;;23.26;37.36;95107.53;4993371;28;20212;-81
2022/05/31 11:50:15;;;;;;;2.08;1.45;;;;;;;23.52;36.76;95102.97;4981183;28;20286;-81
2022/05/31 11:53:00;;;;;;;1.50;1.40;;;;;;;23.55;36.41;95107.69;4980148;28;20247;-81
2022/05/31 11:55:33;;;;;;;3.42;1.65;;;;;;;23.31;36.66;95094.34;4989900;28;20243;-81
2022/05/31 11:58:29;;;;;;;3.72;1.40;;;;;;;23.12;37.64;95105.72;4980558;28;20203;-81
2022/05/31 12:01:05;;;;;;;1.67;1.45;;;;;;;23.09;37.03;95094.69;4996052;28;20227;-80
2022/05/31 12:03:41;;;;;;;3.22;1.67;;;;;;;23.27;36.81;95087.31;4983961;28;20200;-81
2022/05/31 12:06:15;;;;;;;4.05;1.80;;;;;;;23.25;36.89;95081.53;4977657;28;20224;-81
2022/05/31 12:08:47;;;;;;;2.53;1.75;;;;;;;23.54;36.88;95092.19;4991323;28;20231;-81